Terminal Aerodrome Forecast
Issued by NWS

Home | Current Version | Previous Version | Graphics & Text | Print | Product List | Glossary On
Versions: 1 2 3 4 5 6 7 8 9 10 11 12 13 14 15 16
000
FTUS43 KICT 250522
TAFCNU
TAF
KCNU 250522Z 2506/2606 14010KT P6SM VCTS SCT035CB BKN100
      TEMPO 2507/2511 VRB20G35KT 3SM +TSRA OVC025CB
     FM251600 18019G27KT P6SM BKN035=

USA.gov is the U.S. government's official web portal to all federal, state and local government web resources and services.